Schurz, NV

12:01 AM PDT on April 02, 2015 (GMT -0700)
Lake Tahoe | | Change Station
CLOSE
Current Station
Airport
Location: South Lake Tahoe,
Elevation: 6263 ft
Nearby Weather Stations

Elev 6263 ft 38.90 °N, 120.00 °W | Updated 8 minutes ago

Mostly Cloudy
Mostly Cloudy
30 °F
Feels Like 25 °F
N
5
Wind Variable Wind from Variable

Today
High -- | Low -- °F
--% Chance of Precip.
Yesterday
High -- | Low -- °F
Precip. -- in
6:38 AM 7:19 PM
Waxing Gibbous, 96% visible
Pressure 30.02 in
Visibility 5.0 miles
Clouds Few 2600 ft
Mostly Cloudy 3900 ft
Overcast 5000 ft
Windchill 25 °F
Dew Point 17 °F
Humidity 59%
Rainfall 0.00 in
Snow Depth Not available.
UV 0 out of 12
Pollen 9.50 out of 12
Air Quality Not available.
Flu Activity Not available.
METAR KTVL 020653Z AUTO VRB04KT 5SM -SN FEW026 BKN039 OVC050 M01/M08 A3007 RMK AO2 SNB48 SLP166 P0000 T10111083

More Conditions Fewer Conditions

Pressure 30.02 in
Visibility 5.0 miles
Clouds Few 2600 ft
Mostly Cloudy 3900 ft
Overcast 5000 ft
Windchill 25 °F
Dew Point 17 °F
Humidity 59%
Rainfall 0.00 in
Snow Depth Not available.
UV 0 out of 12
Pollen 9.50 out of 12
Air Quality Not available.
Flu Activity Not available.
METAR KTVL 020653Z AUTO VRB04KT 5SM -SN FEW026 BKN039 OVC050 M01/M08 A3007 RMK AO2 SNB48 SLP166 P0000 T10111083

More Conditions Fewer Conditions

10-Day Weather Forecast

Almanac

Astronomy

Apr. 02, 2015 Rise Set
Actual Time
Civil Twilight
Nautical Twilight
Astronomical Twilight
Moon
Length of Visible Light
Length of Day
Tomorrow will be .
, % of the Moon is Illuminated

Today's Extremes

State Highs State Lows

Community

WunderPhotos

Upload Photos

1,810,204 photos uploaded!

WunderBlogs® & News

Nearby

Air Quality

  Air Quality AQ Index Pollutant
Not available.

Snow Depth

Station Depth Elevation

Earthquake Activity

City Distance Mag. Time & Date
Minimum magnitude displayed is 2.5.

Coastal Water Temperatures

Place Temperature

Stations

Nearby Weather Stations

Station Location Temp. Windchill Dew Point Humidity Wind Precip. Elev Updated Type